Time;durP1;ratioP1;P1;durP2;ratioP2;P2;SDS_P1;SDS_P2;PMS_P1;PMS_P2;Temp;Humidity;BMP_temperature;BMP_pressure;BME280_temperature;BME280_humidity;BME280_pressure;Samples;Min_cycle;Max_cycle;Signal;HPM_P1;HPM_P2
2023/10/30 00:01:47;;;;;;;1.17;0.60;;;12.70;99.90;;;;;;5016099;28;20279;-78
2023/10/30 00:04:14;;;;;;;2.37;0.50;;;12.70;99.90;;;;;;5019726;28;20632;-76
2023/10/30 00:06:39;;;;;;;1.07;0.50;;;12.70;99.90;;;;;;5011984;28;20625;-82
2023/10/30 00:09:05;;;;;;;0.97;0.60;;;12.70;99.90;;;;;;5008577;28;20304;-79
2023/10/30 00:11:31;;;;;;;1.17;0.40;;;12.70;99.90;;;;;;5019543;28;20267;-79
2023/10/30 00:13:56;;;;;;;1.17;0.50;;;12.70;99.90;;;;;;5014619;28;20216;-76
2023/10/30 00:16:22;;;;;;;1.33;0.70;;;12.70;99.90;;;;;;5016830;28;20643;-79
2023/10/30 00:18:48;;;;;;;0.93;0.50;;;12.70;99.90;;;;;;5020262;28;20258;-78
2023/10/30 00:21:14;;;;;;;2.10;0.63;;;12.70;99.90;;;;;;5018428;28;20687;-78
2023/10/30 00:23:40;;;;;;;2.10;0.60;;;12.80;99.90;;;;;;5019608;28;20249;-78
2023/10/30 00:26:06;;;;;;;1.85;0.77;;;12.80;99.90;;;;;;5021256;28;20353;-79
2023/10/30 00:28:34;;;;;;;5.87;0.70;;;12.80;99.90;;;;;;5019075;28;20216;-79
2023/10/30 00:31:00;;;;;;;1.50;0.40;;;12.80;99.90;;;;;;5021869;28;20243;-78
2023/10/30 00:33:26;;;;;;;0.67;0.40;;;12.80;99.90;;;;;;5017311;28;20239;-78
2023/10/30 00:35:51;;;;;;;5.20;0.63;;;12.80;99.90;;;;;;5019755;28;20219;-79
2023/10/30 00:38:17;;;;;;;5.40;0.52;;;12.80;99.90;;;;;;5015109;28;20559;-78
2023/10/30 00:40:43;;;;;;;0.40;0.40;;;12.80;99.90;;;;;;5013027;28;20220;-78
2023/10/30 00:43:08;;;;;;;0.67;0.43;;;12.80;99.90;;;;;;5018137;28;20284;-79
2023/10/30 00:45:34;;;;;;;1.23;0.60;;;12.80;99.90;;;;;;5018875;28;20239;-80
2023/10/30 00:47:59;;;;;;;1.20;0.50;;;12.80;99.90;;;;;;5020580;28;20180;-78
2023/10/30 00:50:25;;;;;;;1.85;0.57;;;12.80;99.90;;;;;;5021520;28;20226;-79
2023/10/30 00:52:51;;;;;;;1.20;0.40;;;12.80;99.90;;;;;;5017840;28;20204;-78
2023/10/30 00:55:16;;;;;;;0.53;0.30;;;12.80;99.90;;;;;;5019904;28;20208;-77
2023/10/30 00:57:42;;;;;;;0.82;0.50;;;12.80;99.90;;;;;;5010274;28;20240;-78
2023/10/30 01:00:08;;;;;;;2.45;0.70;;;12.80;99.90;;;;;;5020156;28;20216;-78
2023/10/30 01:02:34;;;;;;;1.53;0.57;;;12.80;99.90;;;;;;5025399;28;20180;-79
2023/10/30 01:04:59;;;;;;;1.73;0.63;;;12.80;99.90;;;;;;5025157;28;20211;-79
2023/10/30 01:07:25;;;;;;;2.57;0.60;;;12.80;99.90;;;;;;5023356;28;20208;-78
2023/10/30 01:09:51;;;;;;;1.92;0.40;;;12.80;99.90;;;;;;5025333;28;20883;-79
2023/10/30 01:12:17;;;;;;;0.30;0.30;;;12.80;99.90;;;;;;5022339;28;20220;-79
2023/10/30 01:14:42;;;;;;;1.30;0.52;;;12.70;99.90;;;;;;5023126;28;20219;-78
2023/10/30 01:17:08;;;;;;;3.33;0.63;;;12.80;99.90;;;;;;5025500;28;20181;-79
2023/10/30 01:19:34;;;;;;;1.08;0.50;;;12.80;99.90;;;;;;5024750;28;20731;-81
2023/10/30 01:22:00;;;;;;;3.53;0.47;;;12.70;99.90;;;;;;5019665;28;20252;-79
2023/10/30 01:24:26;;;;;;;2.33;0.40;;;12.80;99.90;;;;;;5012424;28;20243;-79
2023/10/30 01:26:51;;;;;;;0.80;0.30;;;12.80;99.90;;;;;;5020247;28;20181;-78
2023/10/30 01:29:17;;;;;;;0.63;0.40;;;12.70;99.90;;;;;;5020658;28;20267;-79
2023/10/30 01:31:43;;;;;;;1.70;0.52;;;12.70;99.90;;;;;;5019598;28;20296;-79
2023/10/30 01:34:08;;;;;;;0.47;0.47;;;12.70;99.90;;;;;;5021272;28;20726;-79
2023/10/30 01:36:34;;;;;;;1.65;0.50;;;12.70;99.90;;;;;;5018176;28;20213;-78
2023/10/30 01:39:00;;;;;;;1.55;0.22;;;12.70;99.90;;;;;;5024136;28;20191;-79
2023/10/30 01:41:25;;;;;;;6.70;0.40;;;12.70;99.90;;;;;;5023414;28;20183;-78
2023/10/30 01:43:51;;;;;;;5.03;1.70;;;12.70;99.90;;;;;;5023459;28;20295;-79
2023/10/30 01:46:16;;;;;;;1.70;0.90;;;12.70;99.90;;;;;;5026193;28;20803;-78
2023/10/30 01:48:43;;;;;;;3.75;1.23;;;12.70;99.90;;;;;;5025386;28;20205;-78
2023/10/30 01:51:10;;;;;;;2.77;0.77;;;12.70;99.90;;;;;;5017612;28;20219;-79
2023/10/30 01:53:37;;;;;;;2.15;0.65;;;12.70;99.90;;;;;;5021423;28;20686;-80
2023/10/30 01:56:04;;;;;;;2.67;0.47;;;12.70;99.90;;;;;;5024043;28;20783;-80
2023/10/30 01:58:30;;;;;;;0.90;0.50;;;12.70;99.90;;;;;;5027043;28;20204;-79
2023/10/30 02:00:57;;;;;;;3.77;0.80;;;12.70;99.90;;;;;;5022584;28;20268;-79
2023/10/30 02:03:23;;;;;;;3.00;0.40;;;12.70;99.90;;;;;;5025787;28;20582;-79
2023/10/30 02:05:50;;;;;;;2.65;0.50;;;12.70;99.90;;;;;;5017467;28;20187;-79
2023/10/30 02:08:16;;;;;;;2.95;0.40;;;12.70;99.90;;;;;;5025942;28;20230;-79
2023/10/30 02:10:42;;;;;;;0.68;0.30;;;12.70;99.90;;;;;;5022858;28;20297;-79
2023/10/30 02:13:08;;;;;;;0.60;0.33;;;12.70;99.90;;;;;;5028465;28;20313;-79
2023/10/30 02:15:34;;;;;;;1.10;0.40;;;12.70;99.90;;;;;;5023875;28;20220;-79
2023/10/30 02:18:00;;;;;;;1.40;0.40;;;12.70;99.90;;;;;;5028979;28;20640;-78
2023/10/30 02:20:26;;;;;;;0.80;0.40;;;12.70;99.90;;;;;;5027323;28;20168;-79
2023/10/30 02:22:51;;;;;;;1.20;0.50;;;12.60;99.90;;;;;;5031707;28;20291;-79
2023/10/30 02:25:22;;;;;;;2.00;0.43;;;12.60;99.90;;;;;;5027988;28;20216;-79
2023/10/30 02:27:49;;;;;;;1.50;0.50;;;12.60;99.90;;;;;;5030350;28;20312;-79
2023/10/30 02:30:15;;;;;;;1.50;0.40;;;12.60;99.90;;;;;;5019492;28;20251;-79
2023/10/30 02:32:42;;;;;;;1.60;0.20;;;12.60;99.90;;;;;;5024537;28;20187;-79
2023/10/30 02:35:16;;;;;;;2.40;0.50;;;12.60;99.90;;;;;;5043587;28;20216;-80
2023/10/30 02:37:43;;;;;;;3.53;1.43;;;12.60;99.90;;;;;;5027779;28;20254;-79
2023/10/30 02:40:09;;;;;;;1.57;0.50;;;12.60;99.90;;;;;;5029747;28;20205;-79
2023/10/30 02:42:35;;;;;;;1.10;0.40;;;12.60;99.90;;;;;;5029601;28;20243;-79
2023/10/30 02:45:01;;;;;;;1.17;0.43;;;12.70;99.90;;;;;;5030141;28;20204;-79
2023/10/30 02:47:28;;;;;;;2.60;0.60;;;12.70;99.90;;;;;;5032186;28;20188;-79
2023/10/30 02:49:54;;;;;;;3.50;0.60;;;12.60;99.90;;;;;;5027922;28;20272;-80
2023/10/30 02:52:19;;;;;;;1.97;0.77;;;12.60;99.90;;;;;;5014643;28;20209;-80
2023/10/30 02:54:45;;;;;;;1.43;0.60;;;12.60;99.90;;;;;;5026305;28;20252;-79
2023/10/30 02:57:11;;;;;;;1.50;0.50;;;12.60;99.90;;;;;;5026367;28;20319;-80
2023/10/30 02:59:36;;;;;;;4.80;0.57;;;12.60;99.90;;;;;;5027568;28;20176;-80
2023/10/30 03:02:03;;;;;;;1.65;0.80;;;12.60;99.90;;;;;;5031041;28;20559;-79
2023/10/30 03:04:29;;;;;;;4.05;0.50;;;12.60;99.90;;;;;;5024573;28;20205;-79
2023/10/30 03:06:58;;;;;;;4.22;0.50;;;12.60;99.90;;;;;;5026773;28;20211;-80
2023/10/30 03:09:29;;;;;;;2.00;0.50;;;12.60;99.90;;;;;;5028472;28;20250;-79
2023/10/30 03:11:55;;;;;;;1.20;0.57;;;12.70;99.90;;;;;;5018119;28;20802;-78
2023/10/30 03:14:21;;;;;;;1.93;0.40;;;12.60;99.90;;;;;;5024124;28;20208;-79
2023/10/30 03:16:46;;;;;;;2.03;0.60;;;12.60;99.90;;;;;;5019608;28;20200;-79
2023/10/30 03:19:12;;;;;;;3.70;0.60;;;12.60;99.90;;;;;;5024478;28;20221;-79
2023/10/30 03:21:37;;;;;;;1.17;0.60;;;12.60;99.90;;;;;;5026579;28;20247;-80
2023/10/30 03:24:03;;;;;;;1.00;0.50;;;12.60;99.90;;;;;;5026805;28;20278;-79
2023/10/30 03:26:29;;;;;;;1.30;0.60;;;12.60;99.90;;;;;;5029669;28;20195;-79
2023/10/30 03:28:55;;;;;;;1.17;0.47;;;12.60;99.90;;;;;;5025498;28;20204;-79
2023/10/30 03:31:22;;;;;;;0.87;0.60;;;12.60;99.90;;;;;;5023546;28;20204;-79
2023/10/30 03:33:48;;;;;;;2.33;0.60;;;12.60;99.90;;;;;;5024131;28;20224;-77
2023/10/30 03:36:22;;;;;;;1.13;0.50;;;12.60;99.90;;;;;;5005467;28;20221;-78
2023/10/30 03:38:49;;;;;;;1.10;0.40;;;12.60;99.90;;;;;;5018604;28;20173;-79
2023/10/30 03:41:14;;;;;;;2.50;0.60;;;12.60;99.90;;;;;;5030799;28;20173;-79
2023/10/30 03:43:40;;;;;;;2.57;0.50;;;12.50;99.90;;;;;;5016515;28;20254;-80
2023/10/30 03:46:05;;;;;;;6.32;0.77;;;12.50;99.90;;;;;;5024147;28;20283;-79
2023/10/30 03:48:31;;;;;;;2.03;0.47;;;12.50;99.90;;;;;;5027437;28;20208;-79
2023/10/30 03:50:57;;;;;;;1.70;0.60;;;12.50;99.90;;;;;;5026957;28;20170;-77
2023/10/30 03:53:23;;;;;;;3.20;0.50;;;12.50;99.90;;;;;;5022815;28;20239;-79
2023/10/30 03:55:48;;;;;;;1.50;0.70;;;12.50;99.90;;;;;;5025915;28;20208;-80
2023/10/30 03:58:14;;;;;;;4.22;0.98;;;12.50;99.90;;;;;;5020885;28;20208;-79
2023/10/30 04:00:41;;;;;;;3.03;1.37;;;12.50;99.90;;;;;;5025469;28;20208;-79
2023/10/30 04:03:07;;;;;;;3.10;0.63;;;12.50;99.90;;;;;;5020721;28;20201;-79
2023/10/30 04:05:33;;;;;;;2.60;0.50;;;12.50;99.90;;;;;;5022617;28;20236;-79
2023/10/30 04:08:01;;;;;;;3.33;0.95;;;12.50;99.90;;;;;;5022762;28;20224;-79
2023/10/30 04:10:27;;;;;;;3.50;0.63;;;12.50;99.90;;;;;;5025701;28;20209;-79
2023/10/30 04:12:52;;;;;;;3.27;0.77;;;12.50;99.90;;;;;;5029508;28;20255;-79
2023/10/30 04:15:18;;;;;;;0.60;0.30;;;12.50;99.90;;;;;;5023854;28;20232;-79
2023/10/30 04:17:44;;;;;;;6.37;0.70;;;12.50;99.90;;;;;;5028985;28;20189;-78
2023/10/30 04:20:10;;;;;;;1.60;0.43;;;12.50;99.90;;;;;;5020980;28;20235;-79
2023/10/30 04:22:36;;;;;;;1.20;0.40;;;12.50;99.90;;;;;;5027880;28;20223;-77
2023/10/30 04:25:02;;;;;;;0.80;0.60;;;12.50;99.90;;;;;;5026526;28;20275;-79
2023/10/30 04:27:28;;;;;;;2.37;0.90;;;12.50;99.90;;;;;;5030451;28;20223;-79
2023/10/30 04:29:54;;;;;;;1.77;0.60;;;12.50;99.90;;;;;;5026277;28;20174;-79
2023/10/30 04:32:20;;;;;;;0.93;0.50;;;12.50;99.90;;;;;;5024875;28;20224;-79
2023/10/30 04:34:46;;;;;;;0.70;0.40;;;12.50;99.90;;;;;;5028142;28;20247;-80
2023/10/30 04:37:12;;;;;;;2.23;0.90;;;12.50;99.90;;;;;;5025964;28;20228;-79
2023/10/30 04:39:38;;;;;;;2.77;0.50;;;12.50;99.90;;;;;;5025306;28;20216;-79
2023/10/30 04:42:04;;;;;;;2.40;0.40;;;12.50;99.90;;;;;;5026049;28;20219;-79
2023/10/30 04:44:29;;;;;;;0.90;0.70;;;12.50;99.90;;;;;;5025502;28;20581;-80
2023/10/30 04:46:55;;;;;;;4.27;0.73;;;12.50;99.90;;;;;;5027213;28;20205;-79
2023/10/30 04:49:20;;;;;;;2.37;0.53;;;12.50;99.90;;;;;;5028300;28;20208;-79
2023/10/30 04:51:46;;;;;;;0.50;0.50;;;12.50;99.90;;;;;;5025567;28;20224;-80
2023/10/30 04:54:12;;;;;;;3.03;0.60;;;12.40;99.90;;;;;;5029082;28;20472;-80
2023/10/30 04:56:37;;;;;;;1.40;0.60;;;12.40;99.90;;;;;;5024979;28;20193;-76
2023/10/30 04:59:03;;;;;;;3.10;0.77;;;12.40;99.90;;;;;;5028968;28;20209;-79
2023/10/30 05:01:29;;;;;;;4.27;0.60;;;12.30;99.90;;;;;;5028126;28;20204;-79
2023/10/30 05:03:54;;;;;;;1.43;0.50;;;12.30;99.90;;;;;;5028703;28;20597;-80
2023/10/30 05:06:20;;;;;;;0.90;0.60;;;12.30;99.90;;;;;;5027614;28;20219;-78
2023/10/30 05:08:45;;;;;;;3.67;0.53;;;12.30;99.90;;;;;;5027188;28;20216;-79
2023/10/30 05:11:11;;;;;;;2.37;0.60;;;12.40;99.90;;;;;;5024104;28;20173;-79
2023/10/30 05:13:36;;;;;;;1.83;0.50;;;12.40;99.90;;;;;;5027906;28;20294;-79
2023/10/30 05:16:02;;;;;;;2.73;0.70;;;12.40;99.90;;;;;;5020097;28;20204;-79
2023/10/30 05:18:30;;;;;;;1.03;0.43;;;12.40;99.90;;;;;;5029257;28;20690;-79
2023/10/30 05:20:56;;;;;;;1.77;0.73;;;12.30;99.90;;;;;;5028900;28;20177;-80
2023/10/30 05:23:21;;;;;;;1.97;0.70;;;12.30;99.90;;;;;;5025916;28;20575;-79
2023/10/30 05:25:47;;;;;;;2.87;0.60;;;12.30;99.90;;;;;;5021513;28;20227;-78
2023/10/30 05:28:12;;;;;;;1.60;0.70;;;12.30;99.90;;;;;;5026817;28;20666;-79
2023/10/30 05:30:38;;;;;;;3.97;0.63;;;12.30;99.90;;;;;;5025943;28;20279;-76
2023/10/30 05:33:04;;;;;;;1.80;0.70;;;12.30;99.90;;;;;;5024800;28;20231;-78
2023/10/30 05:35:31;;;;;;;3.47;0.70;;;12.30;99.90;;;;;;5023031;28;20709;-79
2023/10/30 05:37:56;;;;;;;2.83;0.60;;;12.30;99.90;;;;;;5014016;28;20645;-77
2023/10/30 05:40:22;;;;;;;2.17;0.60;;;12.30;99.90;;;;;;5020072;28;20287;-80
2023/10/30 05:42:48;;;;;;;5.23;1.20;;;12.30;99.90;;;;;;5025242;28;20220;-80
2023/10/30 05:45:13;;;;;;;1.27;0.67;;;12.30;99.90;;;;;;5018717;28;20294;-79
2023/10/30 05:47:39;;;;;;;1.87;1.20;;;12.30;99.90;;;;;;5023407;28;20188;-78
2023/10/30 05:50:06;;;;;;;2.67;0.80;;;12.20;99.90;;;;;;5019172;28;20270;-79
2023/10/30 05:52:32;;;;;;;4.70;0.80;;;12.20;99.90;;;;;;5013584;28;20210;-78
2023/10/30 05:54:57;;;;;;;0.97;0.70;;;12.20;99.90;;;;;;5025513;28;20228;-76
2023/10/30 05:57:23;;;;;;;2.10;0.63;;;12.20;99.90;;;;;;5027083;28;20208;-79
2023/10/30 05:59:48;;;;;;;2.40;0.90;;;12.20;99.90;;;;;;5026930;28;20283;-77
2023/10/30 06:02:15;;;;;;;2.83;0.90;;;12.20;99.90;;;;;;5026105;28;20177;-79
2023/10/30 06:04:41;;;;;;;3.77;0.80;;;12.10;99.90;;;;;;5022034;28;20208;-79
2023/10/30 06:07:07;;;;;;;2.50;0.80;;;12.20;99.90;;;;;;5021650;28;20634;-79
2023/10/30 06:09:33;;;;;;;0.73;0.40;;;12.10;99.90;;;;;;5026314;28;20219;-79
2023/10/30 06:11:58;;;;;;;2.50;0.77;;;12.20;99.90;;;;;;5025087;28;20177;-77
2023/10/30 06:14:24;;;;;;;3.00;0.60;;;12.20;99.90;;;;;;5028955;28;20242;-80
2023/10/30 06:16:50;;;;;;;2.37;0.70;;;12.20;99.90;;;;;;5025416;28;20700;-80
2023/10/30 06:19:16;;;;;;;2.93;0.63;;;12.20;99.90;;;;;;5032164;28;20207;-80
2023/10/30 06:21:44;;;;;;;0.97;0.50;;;12.30;99.90;;;;;;5030315;28;20216;-80
2023/10/30 06:24:10;;;;;;;2.43;0.80;;;12.30;99.90;;;;;;5018576;28;20229;-78
2023/10/30 06:26:41;;;;;;;1.17;0.83;;;12.30;99.90;;;;;;5027406;28;20173;-80
2023/10/30 06:29:07;;;;;;;4.30;0.70;;;12.30;99.90;;;;;;5025107;28;20208;-80
2023/10/30 06:31:33;;;;;;;1.97;0.70;;;12.40;99.90;;;;;;5020372;28;20699;-79
2023/10/30 06:33:59;;;;;;;3.87;0.87;;;12.40;99.90;;;;;;5025185;28;20226;-80
2023/10/30 06:36:24;;;;;;;4.10;1.10;;;12.40;99.90;;;;;;5028403;28;20204;-79
2023/10/30 06:38:50;;;;;;;3.10;0.63;;;12.40;99.90;;;;;;5024410;28;20181;-79
2023/10/30 06:41:16;;;;;;;1.92;0.88;;;12.50;99.90;;;;;;5028647;28;20173;-79
2023/10/30 06:43:42;;;;;;;4.47;0.77;;;12.50;99.90;;;;;;5026121;28;20216;-79
2023/10/30 06:46:08;;;;;;;2.05;0.77;;;12.50;99.90;;;;;;5014265;28;20774;-80
2023/10/30 06:48:33;;;;;;;4.45;0.98;;;12.60;99.90;;;;;;5023522;28;20235;-79
2023/10/30 06:50:59;;;;;;;3.13;0.82;;;12.60;99.90;;;;;;5021570;28;20181;-79
2023/10/30 06:53:25;;;;;;;0.70;0.70;;;12.70;99.90;;;;;;5027135;28;20231;-80
2023/10/30 06:55:51;;;;;;;3.28;1.30;;;12.80;99.90;;;;;;5026020;28;20205;-80
2023/10/30 06:58:23;;;;;;;4.13;0.93;;;12.90;99.90;;;;;;5033023;28;20647;-79
2023/10/30 07:00:49;;;;;;;0.88;0.70;;;13.00;99.90;;;;;;5040857;28;20292;-80
2023/10/30 07:03:15;;;;;;;1.05;0.73;;;13.10;99.90;;;;;;5033072;28;20220;-81
2023/10/30 07:05:42;;;;;;;4.82;0.90;;;13.10;99.90;;;;;;5032829;28;20177;-80
2023/10/30 07:08:08;;;;;;;2.60;0.70;;;13.10;99.90;;;;;;5030460;28;20227;-80
2023/10/30 07:10:33;;;;;;;1.02;0.70;;;13.10;99.90;;;;;;5036878;28;20893;-80
2023/10/30 07:12:59;;;;;;;2.63;0.75;;;13.20;99.90;;;;;;5035157;28;20323;-80
2023/10/30 07:15:26;;;;;;;2.83;0.77;;;13.30;99.90;;;;;;5034345;28;20214;-82
2023/10/30 07:17:56;;;;;;;2.97;0.95;;;13.40;99.90;;;;;;5033624;28;20231;-81
2023/10/30 07:20:22;;;;;;;1.33;0.80;;;13.60;99.90;;;;;;5031528;28;20180;-80
2023/10/30 07:22:48;;;;;;;5.78;0.93;;;13.80;99.90;;;;;;5020847;28;20201;-78
2023/10/30 07:25:14;;;;;;;4.65;1.05;;;14.00;99.90;;;;;;5023632;28;20276;-80
2023/10/30 07:27:39;;;;;;;5.13;2.50;;;14.10;99.90;;;;;;5022396;28;20734;-78
2023/10/30 07:30:06;;;;;;;3.00;0.77;;;14.20;99.90;;;;;;5024915;28;20262;-78
2023/10/30 07:32:31;;;;;;;5.00;0.90;;;14.10;99.90;;;;;;5026782;28;20176;-79
2023/10/30 07:34:57;;;;;;;1.00;0.40;;;14.10;99.90;;;;;;5027068;28;21004;-76
2023/10/30 07:37:23;;;;;;;5.13;0.90;;;14.00;99.90;;;;;;5017106;28;20259;-80
2023/10/30 07:39:48;;;;;;;2.60;0.60;;;14.00;99.90;;;;;;5025713;28;20213;-79
2023/10/30 07:42:14;;;;;;;2.50;0.80;;;14.00;99.90;;;;;;5004478;28;20201;-79
2023/10/30 07:44:40;;;;;;;6.53;1.00;;;13.90;99.90;;;;;;5026597;28;20212;-79
2023/10/30 07:47:05;;;;;;;2.08;1.23;;;13.80;99.90;;;;;;5022658;28;20245;-79
2023/10/30 07:49:31;;;;;;;1.85;0.80;;;13.80;99.90;;;;;;5027972;28;20243;-79
2023/10/30 07:51:57;;;;;;;2.20;0.80;;;13.90;99.90;;;;;;5025077;28;20629;-78
2023/10/30 07:54:23;;;;;;;0.95;0.60;;;14.00;99.90;;;;;;5027236;28;20219;-79
2023/10/30 07:56:49;;;;;;;5.20;0.95;;;14.10;99.90;;;;;;5021044;28;20570;-78
2023/10/30 07:59:14;;;;;;;1.23;0.73;;;14.10;99.90;;;;;;5020485;28;20181;-79
2023/10/30 08:01:40;;;;;;;2.00;0.68;;;14.20;99.90;;;;;;5026142;28;20224;-80
2023/10/30 08:04:06;;;;;;;1.45;0.60;;;14.30;99.90;;;;;;5021966;28;20296;-79
2023/10/30 08:06:32;;;;;;;5.15;0.80;;;14.40;99.90;;;;;;5027649;28;20299;-80
2023/10/30 08:08:58;;;;;;;2.65;0.80;;;14.40;99.90;;;;;;5021562;28;20177;-77
2023/10/30 08:11:24;;;;;;;1.80;0.70;;;14.40;99.90;;;;;;5027117;28;20168;-79
2023/10/30 08:13:49;;;;;;;3.22;0.80;;;14.40;99.90;;;;;;5025275;28;20599;-79
2023/10/30 08:16:15;;;;;;;1.33;0.65;;;14.40;99.90;;;;;;5024593;28;20288;-79
2023/10/30 08:18:41;;;;;;;1.33;0.70;;;14.30;99.90;;;;;;5028743;28;20216;-79
2023/10/30 08:21:09;;;;;;;1.88;0.90;;;14.30;99.90;;;;;;5025322;28;20212;-79
2023/10/30 08:23:36;;;;;;;0.82;0.52;;;14.30;99.90;;;;;;5020412;28;20702;-79
2023/10/30 08:26:06;;;;;;;4.28;0.60;;;14.30;99.90;;;;;;5022981;28;20750;-79
2023/10/30 08:28:32;;;;;;;2.30;0.70;;;14.30;99.90;;;;;;5022726;28;20249;-79
2023/10/30 08:30:57;;;;;;;3.88;0.95;;;14.20;99.90;;;;;;5023674;28;20204;-76
2023/10/30 08:33:23;;;;;;;1.83;0.90;;;14.30;99.90;;;;;;5022406;28;20699;-79
2023/10/30 08:35:49;;;;;;;2.35;0.80;;;14.20;99.90;;;;;;5028156;28;20208;-79
2023/10/30 08:38:14;;;;;;;4.47;0.60;;;14.30;99.90;;;;;;5011281;28;20177;-79
2023/10/30 08:40:40;;;;;;;1.40;0.73;;;14.30;99.90;;;;;;5026987;28;20204;-79
2023/10/30 08:43:06;;;;;;;2.60;0.80;;;14.40;99.90;;;;;;5021619;28;20287;-79
2023/10/30 08:45:31;;;;;;;2.05;0.60;;;14.40;99.90;;;;;;5027729;28;20212;-78
2023/10/30 08:47:57;;;;;;;4.20;1.38;;;14.40;99.90;;;;;;5023614;28;20191;-77
2023/10/30 08:50:23;;;;;;;4.22;1.00;;;14.50;99.90;;;;;;5030379;28;20169;-78
2023/10/30 08:52:48;;;;;;;7.65;1.67;;;14.50;99.90;;;;;;5021816;28;20254;-78
2023/10/30 08:55:14;;;;;;;5.82;2.60;;;14.50;99.90;;;;;;5015317;28;20719;-78
2023/10/30 08:57:40;;;;;;;6.22;1.50;;;14.50;99.90;;;;;;5012143;28;20295;-78
2023/10/30 09:00:07;;;;;;;8.55;4.82;;;14.60;99.90;;;;;;5014400;28;20857;-78
2023/10/30 09:02:33;;;;;;;6.30;2.13;;;14.70;99.90;;;;;;5015558;28;20186;-78
2023/10/30 09:04:58;;;;;;;3.78;0.95;;;14.80;99.90;;;;;;5017663;28;20212;-77
2023/10/30 09:07:24;;;;;;;9.40;1.08;;;15.00;99.90;;;;;;5024634;28;20208;-78
2023/10/30 09:09:50;;;;;;;4.03;1.05;;;15.00;99.90;;;;;;5023279;28;20204;-78
2023/10/30 09:12:17;;;;;;;2.08;1.25;;;15.10;99.90;;;;;;5025322;28;20311;-79
2023/10/30 09:14:42;;;;;;;5.63;2.15;;;15.20;99.90;;;;;;5026425;28;20216;-79
2023/10/30 09:17:08;;;;;;;5.72;1.75;;;15.20;99.90;;;;;;5023276;28;20195;-79
2023/10/30 09:19:37;;;;;;;5.22;2.38;;;15.20;99.90;;;;;;5018354;28;20220;-79
2023/10/30 09:22:03;;;;;;;10.38;3.65;;;15.20;99.90;;;;;;5006876;28;20254;-80
2023/10/30 09:24:29;;;;;;;16.25;2.45;;;15.20;99.90;;;;;;5025034;28;20713;-80
2023/10/30 09:26:55;;;;;;;4.93;1.77;;;15.20;99.90;;;;;;5017161;28;20189;-79
2023/10/30 09:29:21;;;;;;;4.15;1.67;;;15.10;99.90;;;;;;5017937;28;20176;-78
2023/10/30 09:31:49;;;;;;;1.85;0.70;;;15.10;99.90;;;;;;5017254;28;20205;-77
2023/10/30 09:34:14;;;;;;;10.18;2.30;;;15.10;99.90;;;;;;5021249;28;20262;-78
2023/10/30 09:36:40;;;;;;;4.43;1.08;;;15.10;99.90;;;;;;5023183;28;20233;-78
2023/10/30 09:39:05;;;;;;;2.65;1.13;;;15.20;99.90;;;;;;5017053;28;20212;-80
2023/10/30 09:41:36;;;;;;;5.00;1.30;;;15.10;99.90;;;;;;5020828;28;20455;-79
2023/10/30 09:44:02;;;;;;;2.22;0.90;;;15.20;99.90;;;;;;5021830;28;20246;-78
2023/10/30 09:46:29;;;;;;;3.30;0.90;;;15.20;99.90;;;;;;5021706;28;20255;-75
2023/10/30 09:48:56;;;;;;;3.15;0.63;;;15.20;99.90;;;;;;5023315;28;20272;-78
2023/10/30 09:51:23;;;;;;;7.00;0.70;;;15.30;99.90;;;;;;5022179;28;20217;-78
2023/10/30 09:53:50;;;;;;;3.15;1.13;;;15.40;99.90;;;;;;5026447;28;20866;-79
2023/10/30 09:56:16;;;;;;;4.03;0.95;;;15.40;99.90;;;;;;5024001;28;20200;-78
2023/10/30 09:58:42;;;;;;;1.75;0.70;;;15.50;99.90;;;;;;5017888;28;20723;-78
2023/10/30 10:01:08;;;;;;;4.32;1.25;;;15.60;99.90;;;;;;5016348;28;20224;-79
2023/10/30 10:03:33;;;;;;;3.92;1.10;;;15.70;99.90;;;;;;5027204;28;20213;-79
2023/10/30 10:06:00;;;;;;;3.45;0.88;;;15.60;99.90;;;;;;5027945;28;20203;-78
2023/10/30 10:08:26;;;;;;;4.05;1.02;;;15.60;99.90;;;;;;5032558;28;20177;-80
2023/10/30 10:11:02;;;;;;;2.15;0.80;;;15.60;99.90;;;;;;5037069;28;20231;-78
2023/10/30 10:13:31;;;;;;;5.05;1.00;;;15.60;99.90;;;;;;5025965;28;20215;-78
2023/10/30 10:15:56;;;;;;;5.10;1.00;;;15.60;99.90;;;;;;5035548;28;20208;-78
2023/10/30 10:18:23;;;;;;;1.85;0.70;;;15.60;99.90;;;;;;5023915;28;20336;-77
2023/10/30 10:21:00;;;;;;;4.43;1.05;;;15.60;99.90;;;;;;5027125;28;20211;-78
2023/10/30 10:23:31;;;;;;;7.78;1.35;;;15.70;99.90;;;;;;5027601;28;20299;-79
2023/10/30 10:25:58;;;;;;;2.38;1.08;;;15.70;99.90;;;;;;5030410;28;20215;-77
2023/10/30 10:28:25;;;;;;;2.65;0.80;;;15.70;99.90;;;;;;5028502;28;20210;-78
2023/10/30 10:30:54;;;;;;;2.05;0.80;;;15.80;99.90;;;;;;5032964;28;20299;-79
2023/10/30 10:33:27;;;;;;;2.05;0.73;;;15.80;99.90;;;;;;5020524;28;20227;-79
2023/10/30 10:36:01;;;;;;;3.88;1.00;;;15.70;99.90;;;;;;5016295;28;20177;-77
2023/10/30 10:38:27;;;;;;;2.50;0.77;;;15.80;99.90;;;;;;5023971;28;20168;-78
2023/10/30 10:40:53;;;;;;;1.52;0.73;;;15.80;99.90;;;;;;5026543;28;20290;-79
2023/10/30 10:43:20;;;;;;;4.00;0.85;;;15.90;99.90;;;;;;5019519;28;20243;-78
2023/10/30 10:45:51;;;;;;;4.30;0.93;;;16.00;99.90;;;;;;5023811;28;20213;-78
2023/10/30 10:48:18;;;;;;;3.60;0.77;;;15.90;99.90;;;;;;5022403;28;20219;-79
2023/10/30 10:50:44;;;;;;;3.90;1.35;;;15.90;99.90;;;;;;5020000;28;20204;-77
2023/10/30 10:53:11;;;;;;;2.13;0.77;;;15.90;99.90;;;;;;5011751;28;20264;-76
2023/10/30 10:55:44;;;;;;;1.73;0.75;;;15.80;99.90;;;;;;5019348;28;20205;-78
2023/10/30 10:58:20;;;;;;;4.38;1.23;;;15.70;99.90;;;;;;5020955;28;20709;-75
2023/10/30 11:00:50;;;;;;;6.72;1.08;;;15.70;99.90;;;;;;5023753;28;20261;-78
2023/10/30 11:03:17;;;;;;;2.60;0.85;;;15.70;99.90;;;;;;5021713;28;20209;-78
2023/10/30 11:05:46;;;;;;;5.80;1.10;;;15.70;99.90;;;;;;5020679;28;20181;-77
2023/10/30 11:08:11;;;;;;;4.28;1.00;;;15.60;99.90;;;;;;5023878;28;20234;-77
2023/10/30 11:10:48;;;;;;;2.40;1.20;;;15.60;99.90;;;;;;5022963;28;20299;-75
2023/10/30 11:14:05;;;;;;;3.03;1.08;;;15.60;99.90;;;;;;5024465;28;20263;-77
2023/10/30 11:16:46;;;;;;;3.05;0.90;;;15.80;99.90;;;;;;4966037;28;20214;-77
2023/10/30 11:19:12;;;;;;;3.60;1.00;;;15.90;99.90;;;;;;5014858;28;20234;-77
2023/10/30 11:21:39;;;;;;;4.68;0.93;;;16.00;99.90;;;;;;5022721;28;20950;-78
2023/10/30 11:24:05;;;;;;;4.00;0.90;;;16.20;99.90;;;;;;5007839;28;20213;-78
2023/10/30 11:26:38;;;;;;;3.20;0.90;;;16.10;99.90;;;;;;5019488;28;20181;-76
2023/10/30 11:29:44;;;;;;;3.08;1.08;;;16.10;99.90;;;;;;5020417;28;20291;-77
2023/10/30 11:32:14;;;;;;;3.67;0.90;;;16.00;99.90;;;;;;5019506;28;20200;-78
2023/10/30 11:34:43;;;;;;;2.80;0.93;;;16.00;99.90;;;;;;5010897;28;20213;-78
2023/10/30 11:37:11;;;;;;;1.95;0.70;;;15.90;99.90;;;;;;5016517;28;20287;-78
2023/10/30 11:39:39;;;;;;;3.28;1.83;;;16.00;99.90;;;;;;5018832;28;20229;-79
2023/10/30 11:42:24;;;;;;;3.53;1.17;;;16.00;99.90;;;;;;5020632;28;20240;-76
2023/10/30 11:44:51;;;;;;;3.60;0.85;;;16.00;99.90;;;;;;5029112;28;20262;-78
2023/10/30 11:47:24;;;;;;;4.78;0.90;;;15.80;99.90;;;;;;5022444;28;20173;-78
2023/10/30 11:49:55;;;;;;;3.95;1.23;;;15.70;99.90;;;;;;5027370;28;20212;-76
2023/10/30 11:52:20;;;;;;;6.20;2.58;;;15.60;99.90;;;;;;5010657;28;20239;-77
2023/10/30 11:54:46;;;;;;;4.00;1.05;;;15.60;99.90;;;;;;5019988;28;20216;-79
2023/10/30 11:57:12;;;;;;;4.13;1.17;;;15.70;99.90;;;;;;5023343;28;20254;-79
2023/10/30 11:59:38;;;;;;;4.40;1.00;;;15.70;99.90;;;;;;5018558;28;20185;-79
2023/10/30 12:02:07;;;;;;;17.02;1.98;;;15.50;99.90;;;;;;5020981;28;20215;-78
2023/10/30 12:04:33;;;;;;;3.25;1.10;;;15.50;99.90;;;;;;5021160;28;20307;-79
2023/10/30 12:06:59;;;;;;;3.63;1.00;;;15.50;99.90;;;;;;5024320;28;20282;-79
2023/10/30 12:09:25;;;;;;;2.97;1.10;;;15.50;99.90;;;;;;5015080;28;20659;-78
2023/10/30 12:11:52;;;;;;;2.95;1.15;;;15.70;99.90;;;;;;5017240;28;20237;-78
2023/10/30 12:14:21;;;;;;;1.25;0.57;;;15.60;99.90;;;;;;5021620;28;20779;-75
2023/10/30 12:16:50;;;;;;;3.38;1.17;;;15.60;99.90;;;;;;5022036;28;20205;-78
2023/10/30 12:19:23;;;;;;;5.28;0.80;;;15.60;99.90;;;;;;5019055;28;20246;-78
2023/10/30 12:21:49;;;;;;;3.13;1.10;;;15.70;99.90;;;;;;5021301;28;20200;-78
2023/10/30 12:24:19;;;;;;;2.58;0.80;;;15.60;99.90;;;;;;5018263;28;20317;-77
2023/10/30 12:26:46;;;;;;;3.00;1.00;;;15.60;99.90;;;;;;5020741;28;20180;-78
2023/10/30 12:29:19;;;;;;;1.48;0.60;;;15.60;99.90;;;;;;5022985;28;20689;-77
2023/10/30 12:31:49;;;;;;;4.70;1.15;;;15.60;99.90;;;;;;5019182;28;20232;-78
2023/10/30 12:34:16;;;;;;;3.08;0.90;;;15.70;99.90;;;;;;5015433;28;20212;-78
2023/10/30 12:36:42;;;;;;;2.92;0.85;;;15.90;99.90;;;;;;5010006;28;20221;-77
2023/10/30 12:39:26;;;;;;;1.63;0.60;;;15.90;99.90;;;;;;5014430;28;20219;-78
2023/10/30 12:41:55;;;;;;;1.13;0.68;;;15.70;99.90;;;;;;5017514;28;20861;-77
2023/10/30 12:44:24;;;;;;;1.85;0.65;;;15.70;99.90;;;;;;5020529;28;20211;-76